Time;durP1;ratioP1;P1;durP2;ratioP2;P2;SDS_P1;SDS_P2;PMS_P1;PMS_P2;Temp;Humidity;BMP_temperature;BMP_pressure;BME280_temperature;BME280_humidity;BME280_pressure;Samples;Min_cycle;Max_cycle;Signal;HPM_P1;HPM_P2
2022/01/18 00:00:40;;;;;;;6.37;2.73;;;9.00;99.90;;;;;;5096829;28;20439;-71
2022/01/18 00:03:06;;;;;;;6.30;2.87;;;9.00;99.90;;;;;;5077590;28;20181;-78
2022/01/18 00:05:32;;;;;;;8.43;3.20;;;9.00;99.90;;;;;;5071261;28;20164;-78
2022/01/18 00:08:00;;;;;;;6.73;3.00;;;9.00;99.90;;;;;;5072006;28;20170;-72
2022/01/18 00:10:32;;;;;;;9.00;3.23;;;9.00;99.90;;;;;;5078800;28;20240;-78
2022/01/18 00:15:54;;;;;;;13.67;3.80;;;9.00;99.90;;;;;;5078400;28;20246;-75
2022/01/18 00:18:19;;;;;;;8.27;3.03;;;9.00;99.90;;;;;;5079250;28;20177;-77
2022/01/18 00:23:22;;;;;;;9.90;3.07;;;9.00;99.90;;;;;;5083091;28;20204;-78
2022/01/18 00:25:54;;;;;;;6.23;3.00;;;9.00;99.90;;;;;;5080261;28;20180;-79
2022/01/18 00:28:23;;;;;;;9.30;2.67;;;9.00;99.90;;;;;;5103374;28;20203;-74
2022/01/18 00:36:24;;;;;;;6.53;3.00;;;9.00;99.90;;;;;;5073694;28;20180;-75
2022/01/18 00:38:50;;;;;;;9.77;3.00;;;9.00;99.90;;;;;;5068602;28;20189;-75
2022/01/18 00:41:20;;;;;;;6.40;2.63;;;9.00;99.90;;;;;;5076443;28;20268;-69
2022/01/18 00:43:51;;;;;;;7.50;2.83;;;9.00;99.90;;;;;;5098161;28;20267;-76
2022/01/18 00:46:23;;;;;;;6.80;2.43;;;9.00;99.90;;;;;;5075942;28;20173;-78
2022/01/18 00:48:51;;;;;;;9.83;2.97;;;9.00;99.90;;;;;;5079061;28;20267;-74
2022/01/18 00:51:19;;;;;;;7.60;2.70;;;9.10;99.90;;;;;;5078693;28;20257;-73
2022/01/18 00:53:46;;;;;;;6.17;2.60;;;9.10;99.90;;;;;;5077100;28;20180;-77
2022/01/18 00:58:39;;;;;;;7.07;2.87;;;9.10;99.90;;;;;;5076818;28;20184;-74
2022/01/18 01:01:10;;;;;;;7.87;2.47;;;9.10;99.90;;;;;;5108597;27;20180;-74
2022/01/18 01:03:37;;;;;;;7.47;2.50;;;9.10;99.90;;;;;;5076134;28;20215;-73
2022/01/18 01:06:06;;;;;;;4.73;2.47;;;9.10;99.90;;;;;;5071639;28;20188;-74
2022/01/18 01:08:37;;;;;;;8.97;2.33;;;9.10;99.90;;;;;;5076114;28;20204;-74
2022/01/18 01:11:08;;;;;;;6.73;2.30;;;9.10;99.90;;;;;;5066013;28;20193;-74
2022/01/18 01:13:36;;;;;;;4.87;2.13;;;9.10;99.90;;;;;;5072434;28;20192;-72
2022/01/18 01:19:49;;;;;;;6.10;2.27;;;9.10;99.90;;;;;;5074234;28;20207;-74
2022/01/18 01:43:27;;;;;;;5.60;2.20;;;9.20;99.90;;;;;;5082186;28;20271;-72
2022/01/18 01:45:55;;;;;;;7.77;2.47;;;9.20;99.90;;;;;;5071099;28;20188;-73
2022/01/18 01:48:27;;;;;;;7.73;2.30;;;9.20;99.90;;;;;;5083972;28;20180;-73
2022/01/18 01:51:03;;;;;;;11.27;2.67;;;9.20;99.90;;;;;;5077102;28;20204;-73
2022/01/18 01:53:31;;;;;;;6.70;2.30;;;9.20;99.90;;;;;;5111375;27;20203;-72
2022/01/18 01:55:57;;;;;;;5.17;2.27;;;9.20;99.90;;;;;;5062880;28;20189;-73
2022/01/18 01:58:25;;;;;;;8.13;2.57;;;9.20;99.90;;;;;;5076059;28;20241;-73
2022/01/18 02:00:56;;;;;;;5.83;2.33;;;9.20;99.90;;;;;;5075213;28;20178;-73
2022/01/18 02:03:25;;;;;;;8.60;2.87;;;9.20;99.90;;;;;;5080237;28;20215;-74
2022/01/18 02:05:51;;;;;;;6.17;2.13;;;9.10;99.90;;;;;;5086076;28;20199;-71
2022/01/18 02:08:20;;;;;;;5.97;2.07;;;9.10;99.90;;;;;;5071989;28;20202;-74
2022/01/18 02:10:48;;;;;;;6.83;2.10;;;9.10;99.90;;;;;;5098621;28;20216;-71
2022/01/18 02:13:15;;;;;;;8.90;2.77;;;9.10;99.90;;;;;;5074555;28;20173;-74
2022/01/18 02:16:14;;;;;;;6.87;2.30;;;9.10;99.90;;;;;;5062890;28;20181;-73
2022/01/18 02:24:10;;;;;;;7.00;2.60;;;9.10;99.90;;;;;;5079907;28;20194;-73
2022/01/18 02:26:36;;;;;;;7.93;1.90;;;9.10;99.90;;;;;;5084155;28;20354;-74
2022/01/18 02:29:05;;;;;;;4.57;2.03;;;9.10;99.90;;;;;;5077350;28;20180;-74
2022/01/18 02:31:34;;;;;;;7.23;2.60;;;9.10;99.90;;;;;;5083437;28;20243;-73
2022/01/18 02:34:10;;;;;;;6.70;2.27;;;9.00;99.90;;;;;;5071335;28;20200;-73
2022/01/18 02:36:37;;;;;;;13.03;2.50;;;9.00;99.90;;;;;;5070485;28;20224;-73
2022/01/18 02:39:06;;;;;;;9.37;2.57;;;9.00;99.90;;;;;;5072764;28;20233;-72
2022/01/18 02:41:35;;;;;;;12.50;2.37;;;9.00;99.90;;;;;;5079319;28;20185;-73
2022/01/18 02:44:09;;;;;;;7.17;2.20;;;9.00;99.90;;;;;;5076335;28;20177;-72
2022/01/18 02:46:35;;;;;;;5.77;2.00;;;9.00;99.90;;;;;;5074210;28;20270;-74
2022/01/18 02:49:03;;;;;;;7.23;2.33;;;9.00;99.90;;;;;;5076521;28;20269;-72
2022/01/18 02:51:29;;;;;;;7.93;2.67;;;9.00;99.90;;;;;;5071001;28;20233;-69
2022/01/18 02:54:06;;;;;;;8.60;2.20;;;9.00;99.90;;;;;;5076436;28;20226;-73
2022/01/18 02:56:42;;;;;;;5.87;1.83;;;8.90;99.90;;;;;;5068952;28;20181;-71
2022/01/18 03:00:04;;;;;;;5.33;2.10;;;8.90;99.90;;;;;;5067738;28;20222;-71
2022/01/18 03:04:47;;;;;;;8.23;2.03;;;8.90;99.90;;;;;;5075783;28;20253;-74
2022/01/18 03:07:13;;;;;;;7.17;2.40;;;8.90;99.90;;;;;;5070042;28;20192;-73
2022/01/18 03:09:42;;;;;;;6.90;2.43;;;8.90;99.90;;;;;;5068819;28;20195;-73
2022/01/18 03:12:09;;;;;;;10.00;2.60;;;8.90;99.90;;;;;;5064627;28;20239;-73
2022/01/18 03:14:40;;;;;;;5.50;2.30;;;8.90;99.90;;;;;;5098042;27;20185;-73
2022/01/18 03:17:08;;;;;;;9.10;2.40;;;8.90;99.90;;;;;;5066916;28;20270;-72
2022/01/18 03:19:35;;;;;;;5.13;1.90;;;8.90;99.90;;;;;;5072706;28;20177;-73
2022/01/18 03:22:01;;;;;;;9.17;2.80;;;8.90;99.90;;;;;;5074330;28;20184;-72
2022/01/18 03:29:42;;;;;;;6.40;2.47;;;8.90;99.90;;;;;;5061453;28;20297;-74
2022/01/18 03:32:08;;;;;;;7.13;2.30;;;8.90;99.90;;;;;;5070825;28;20232;-74
2022/01/18 03:34:36;;;;;;;6.23;2.20;;;8.90;99.90;;;;;;5072838;28;20176;-71
2022/01/18 03:37:02;;;;;;;7.77;2.30;;;8.90;99.90;;;;;;5072265;28;20201;-74
2022/01/18 03:39:27;;;;;;;9.33;2.13;;;8.90;99.90;;;;;;5072901;28;20184;-71
2022/01/18 03:41:55;;;;;;;8.53;2.20;;;8.90;99.90;;;;;;5072258;28;20459;-73
2022/01/18 03:44:25;;;;;;;10.30;2.43;;;8.90;99.90;;;;;;5063183;28;20223;-74
2022/01/18 03:46:54;;;;;;;6.60;2.10;;;8.90;99.90;;;;;;5071274;28;20208;-74
2022/01/18 03:49:23;;;;;;;6.70;2.23;;;8.90;99.90;;;;;;5069431;28;20192;-73
2022/01/18 03:51:49;;;;;;;6.43;2.47;;;8.80;99.90;;;;;;5065037;28;20209;-71
2022/01/18 03:54:21;;;;;;;9.60;2.30;;;8.80;99.90;;;;;;5098866;28;20207;-73
2022/01/18 03:56:49;;;;;;;5.63;2.10;;;8.80;99.90;;;;;;5103406;28;20189;-73
2022/01/18 03:59:17;;;;;;;7.07;2.20;;;8.80;99.90;;;;;;5073333;28;20268;-68
2022/01/18 04:01:42;;;;;;;7.93;2.30;;;8.80;99.90;;;;;;5069460;28;20209;-73
2022/01/18 04:04:08;;;;;;;6.40;2.40;;;8.90;99.90;;;;;;5069836;28;20186;-74
2022/01/18 04:06:38;;;;;;;5.27;2.00;;;8.80;99.90;;;;;;5074717;28;20243;-74
2022/01/18 04:09:04;;;;;;;8.00;2.20;;;8.80;99.90;;;;;;5081844;28;20173;-73
2022/01/18 04:11:32;;;;;;;6.97;2.30;;;8.80;99.90;;;;;;5068093;28;20231;-74
2022/01/18 04:13:58;;;;;;;7.40;2.80;;;8.80;99.90;;;;;;5081419;28;20201;-74
2022/01/18 04:16:26;;;;;;;8.37;2.87;;;8.90;99.90;;;;;;5072129;28;20186;-73
2022/01/18 04:19:20;;;;;;;9.70;3.00;;;8.90;99.90;;;;;;5068137;28;20236;-73
2022/01/18 04:27:14;;;;;;;6.43;2.77;;;8.90;99.90;;;;;;5071806;28;20214;-74
2022/01/18 04:29:42;;;;;;;11.50;3.07;;;8.80;99.90;;;;;;5071177;28;20196;-74
2022/01/18 04:32:10;;;;;;;6.03;2.70;;;8.80;99.90;;;;;;5068189;28;20212;-74
2022/01/18 04:34:38;;;;;;;8.50;2.90;;;8.80;99.90;;;;;;5069862;28;20176;-72
2022/01/18 04:37:06;;;;;;;9.80;3.00;;;8.80;99.90;;;;;;5069627;28;20173;-73
2022/01/18 04:39:38;;;;;;;8.43;3.03;;;8.80;99.90;;;;;;5107585;28;20201;-74
2022/01/18 04:42:16;;;;;;;8.57;3.10;;;8.80;99.90;;;;;;5068642;28;20172;-73
2022/01/18 04:49:51;;;;;;;8.57;2.90;;;8.80;99.90;;;;;;5075936;28;20230;-73
2022/01/18 04:52:20;;;;;;;7.00;3.03;;;8.70;99.90;;;;;;5071767;28;20209;-73
2022/01/18 04:54:57;;;;;;;8.97;2.97;;;8.70;99.90;;;;;;5072855;28;20264;-71
2022/01/18 04:59:49;;;;;;;9.57;2.90;;;8.70;99.90;;;;;;5073244;28;20280;-72
2022/01/18 05:02:14;;;;;;;12.30;3.10;;;8.70;99.90;;;;;;5073271;28;20205;-71
2022/01/18 05:04:43;;;;;;;5.67;2.70;;;8.70;99.90;;;;;;5072884;28;20200;-75
2022/01/18 05:07:13;;;;;;;5.87;2.63;;;8.70;99.90;;;;;;5062790;28;20200;-75
2022/01/18 05:09:46;;;;;;;8.67;3.03;;;8.70;99.90;;;;;;5082237;28;20227;-73
2022/01/18 05:12:18;;;;;;;9.90;3.00;;;8.70;99.90;;;;;;5100561;27;20201;-74
2022/01/18 05:14:45;;;;;;;8.23;2.63;;;8.70;99.90;;;;;;5076340;28;20257;-74
2022/01/18 05:24:55;;;;;;;6.40;2.47;;;8.70;99.90;;;;;;5067652;28;20305;-70
2022/01/18 05:27:25;;;;;;;6.03;2.70;;;8.70;99.90;;;;;;5074189;28;20185;-74
2022/01/18 05:29:53;;;;;;;6.33;2.97;;;8.70;99.90;;;;;;5070656;28;20267;-73
2022/01/18 05:32:23;;;;;;;7.03;2.60;;;8.70;99.90;;;;;;5067966;28;20208;-69
2022/01/18 05:34:52;;;;;;;6.17;2.90;;;8.70;99.90;;;;;;5072084;28;20195;-74
2022/01/18 05:37:17;;;;;;;8.30;2.73;;;8.70;99.90;;;;;;5070005;28;20748;-70
2022/01/18 05:39:45;;;;;;;7.67;2.87;;;8.70;99.90;;;;;;5069685;28;20184;-70
2022/01/18 05:42:16;;;;;;;7.37;2.70;;;8.70;99.90;;;;;;5073644;28;20307;-72
2022/01/18 05:44:46;;;;;;;9.87;3.07;;;8.70;99.90;;;;;;5099665;28;20193;-68
2022/01/18 05:47:11;;;;;;;8.13;2.67;;;8.70;99.90;;;;;;5068399;28;20269;-73
2022/01/18 05:49:39;;;;;;;5.47;2.40;;;8.70;99.90;;;;;;5067838;28;20273;-72
2022/01/18 05:52:05;;;;;;;9.20;3.07;;;8.70;99.90;;;;;;5073783;28;20200;-74
2022/01/18 05:54:33;;;;;;;8.20;2.73;;;8.70;99.90;;;;;;5076918;28;20207;-73
2022/01/18 05:57:01;;;;;;;5.97;2.67;;;8.70;99.90;;;;;;5070625;28;20191;-71
2022/01/18 05:59:35;;;;;;;8.00;2.60;;;8.70;99.90;;;;;;5073679;28;20545;-71
2022/01/18 06:02:03;;;;;;;7.97;2.63;;;8.80;99.90;;;;;;5074275;28;20283;-73
2022/01/18 06:07:13;;;;;;;6.70;2.70;;;8.80;99.90;;;;;;5067485;28;20289;-73
2022/01/18 06:09:39;;;;;;;8.63;2.63;;;8.80;99.90;;;;;;5069862;28;20230;-74
2022/01/18 06:12:11;;;;;;;8.63;2.80;;;8.80;99.90;;;;;;5068934;28;20215;-74
2022/01/18 06:14:37;;;;;;;10.77;3.30;;;8.80;99.90;;;;;;5075340;28;20168;-73
2022/01/18 06:17:03;;;;;;;7.93;2.77;;;8.90;99.90;;;;;;5073512;28;20195;-69
2022/01/18 06:19:29;;;;;;;10.03;2.90;;;8.80;99.90;;;;;;5071791;28;20184;-74
2022/01/18 06:21:57;;;;;;;8.40;3.20;;;8.80;99.90;;;;;;5083623;28;20176;-74
2022/01/18 06:24:22;;;;;;;7.27;2.60;;;8.80;99.90;;;;;;5073326;28;20204;-75
2022/01/18 06:26:48;;;;;;;7.33;2.90;;;8.80;99.90;;;;;;5073971;28;20230;-73
2022/01/18 06:29:14;;;;;;;12.70;3.40;;;8.80;99.90;;;;;;5066557;28;20181;-70
2022/01/18 06:31:44;;;;;;;7.40;3.07;;;8.80;99.90;;;;;;5077067;28;20265;-73
2022/01/18 06:34:10;;;;;;;6.67;2.93;;;8.80;99.90;;;;;;5069863;28;20245;-74
2022/01/18 06:36:35;;;;;;;6.67;3.10;;;8.80;99.90;;;;;;5071767;28;20284;-73
2022/01/18 06:39:05;;;;;;;7.50;3.43;;;8.80;99.90;;;;;;5068149;28;20216;-72
2022/01/18 06:41:31;;;;;;;7.90;3.27;;;8.80;99.90;;;;;;5084018;28;20485;-73
2022/01/18 06:43:57;;;;;;;11.87;3.37;;;8.80;99.90;;;;;;5079388;28;20180;-73
2022/01/18 06:46:22;;;;;;;8.60;3.70;;;8.80;99.90;;;;;;5074299;28;20181;-68
2022/01/18 06:48:48;;;;;;;8.63;3.27;;;8.80;99.90;;;;;;5073446;28;20208;-72
2022/01/18 06:51:14;;;;;;;8.07;3.43;;;8.80;99.90;;;;;;5067483;28;20205;-73
2022/01/18 06:53:47;;;;;;;10.90;3.60;;;8.80;99.90;;;;;;5073482;28;20226;-73
2022/01/18 06:56:17;;;;;;;11.43;3.77;;;8.80;99.90;;;;;;5078528;28;20394;-73
2022/01/18 06:58:44;;;;;;;9.93;3.70;;;8.90;99.90;;;;;;5076064;28;20190;-70
2022/01/18 07:01:11;;;;;;;10.67;4.03;;;8.90;99.90;;;;;;5100671;28;20277;-70
2022/01/18 07:03:37;;;;;;;7.67;3.83;;;8.80;99.90;;;;;;5068798;28;20191;-72
2022/01/18 07:06:06;;;;;;;9.23;3.93;;;8.90;99.90;;;;;;5076781;28;20178;-69
2022/01/18 07:08:35;;;;;;;8.03;3.87;;;8.90;99.90;;;;;;5086906;28;20245;-70
2022/01/18 07:11:06;;;;;;;8.20;4.30;;;8.90;99.90;;;;;;5071663;28;20213;-69
2022/01/18 07:13:35;;;;;;;10.93;4.17;;;8.80;99.90;;;;;;5068817;28;20518;-70
2022/01/18 07:16:01;;;;;;;11.13;4.60;;;8.80;99.90;;;;;;5105592;28;20173;-68
2022/01/18 07:18:27;;;;;;;10.20;5.23;;;8.80;99.90;;;;;;5093527;28;20310;-70
2022/01/18 07:20:52;;;;;;;11.70;5.30;;;8.80;99.90;;;;;;5067407;28;20172;-68
2022/01/18 07:23:22;;;;;;;10.03;5.60;;;8.90;99.90;;;;;;5069418;28;20271;-70
2022/01/18 07:25:53;;;;;;;11.20;5.20;;;8.90;99.90;;;;;;5074068;28;20196;-69
2022/01/18 07:28:20;;;;;;;11.27;5.10;;;8.80;99.90;;;;;;5069156;28;20173;-69
2022/01/18 07:30:47;;;;;;;14.27;4.90;;;8.80;99.90;;;;;;5071862;28;20201;-69
2022/01/18 07:33:16;;;;;;;12.83;5.17;;;8.80;99.90;;;;;;5073242;28;20180;-69
2022/01/18 07:35:44;;;;;;;11.67;4.70;;;8.80;99.90;;;;;;5071328;28;20263;-71
2022/01/18 07:38:16;;;;;;;10.07;5.03;;;8.80;99.90;;;;;;5066069;28;20249;-68
2022/01/18 07:40:46;;;;;;;12.10;5.17;;;8.80;99.90;;;;;;5074814;28;20180;-70
2022/01/18 07:43:17;;;;;;;10.77;4.90;;;8.80;99.90;;;;;;5076212;28;20286;-70
2022/01/18 07:45:43;;;;;;;10.07;4.70;;;8.80;99.90;;;;;;5085859;28;20189;-69
2022/01/18 07:48:10;;;;;;;10.17;4.80;;;8.80;99.90;;;;;;5069228;28;20254;-67
2022/01/18 07:50:35;;;;;;;11.83;4.43;;;8.80;99.90;;;;;;5070029;28;20267;-68
2022/01/18 07:53:03;;;;;;;11.10;5.27;;;8.80;99.90;;;;;;5064836;28;20291;-68
2022/01/18 07:55:31;;;;;;;11.03;4.67;;;8.80;99.90;;;;;;5094231;28;20197;-70
2022/01/18 07:57:59;;;;;;;12.70;4.83;;;8.80;99.90;;;;;;5075469;28;20207;-69
2022/01/18 08:00:25;;;;;;;9.30;4.50;;;8.80;99.90;;;;;;5070329;28;20237;-71
2022/01/18 08:02:50;;;;;;;11.27;5.00;;;8.80;99.90;;;;;;5073077;28;20172;-68
2022/01/18 08:05:16;;;;;;;12.13;4.80;;;8.80;99.90;;;;;;5102202;28;20253;-68
2022/01/18 08:07:44;;;;;;;9.83;4.27;;;8.80;99.90;;;;;;5068613;28;20197;-69
2022/01/18 08:10:12;;;;;;;9.87;4.57;;;8.80;99.90;;;;;;5069526;28;20188;-68
2022/01/18 08:12:38;;;;;;;12.67;4.90;;;8.80;99.90;;;;;;5066422;28;20638;-67
2022/01/18 08:15:13;;;;;;;13.73;4.93;;;8.90;99.90;;;;;;5076975;28;20273;-65
2022/01/18 08:17:41;;;;;;;8.83;4.33;;;8.90;99.90;;;;;;5075233;28;20176;-68
2022/01/18 08:20:10;;;;;;;11.50;4.90;;;8.90;99.90;;;;;;5072556;28;20177;-69
2022/01/18 08:22:38;;;;;;;10.33;4.57;;;8.90;99.90;;;;;;5076969;28;20188;-67
2022/01/18 08:25:04;;;;;;;11.07;5.37;;;8.90;99.90;;;;;;5074715;28;20181;-67
2022/01/18 08:27:30;;;;;;;8.73;4.60;;;9.00;99.90;;;;;;5076509;28;20212;-68
2022/01/18 08:29:55;;;;;;;10.43;4.57;;;9.00;99.90;;;;;;5075809;28;20194;-67
2022/01/18 08:32:22;;;;;;;8.93;4.50;;;9.00;99.90;;;;;;5078375;28;20224;-68
2022/01/18 08:34:50;;;;;;;10.90;4.93;;;9.00;99.90;;;;;;5102716;27;20189;-67
2022/01/18 08:37:16;;;;;;;12.47;5.40;;;9.00;99.90;;;;;;5072376;28;20188;-68
2022/01/18 08:39:46;;;;;;;11.03;5.33;;;9.00;99.90;;;;;;5104921;28;20283;-67
2022/01/18 08:42:13;;;;;;;10.43;5.00;;;9.00;99.90;;;;;;5105104;28;20177;-69
2022/01/18 08:44:43;;;;;;;14.00;5.20;;;9.00;99.90;;;;;;5074323;28;20176;-69
2022/01/18 08:47:14;;;;;;;11.27;5.20;;;9.00;99.90;;;;;;5068501;28;20213;-68
2022/01/18 08:49:40;;;;;;;12.47;4.80;;;9.00;99.90;;;;;;5068589;28;20196;-66
2022/01/18 08:52:09;;;;;;;12.87;5.00;;;9.00;99.90;;;;;;5071284;28;20201;-68
2022/01/18 08:54:34;;;;;;;13.17;5.63;;;9.00;99.90;;;;;;5069189;28;20204;-68
2022/01/18 08:57:03;;;;;;;13.13;5.53;;;9.00;99.90;;;;;;5070123;28;20178;-68
2022/01/18 08:59:35;;;;;;;12.30;5.67;;;9.00;99.90;;;;;;5074727;28;20180;-70
2022/01/18 09:02:05;;;;;;;10.30;5.60;;;9.00;99.90;;;;;;5074695;28;20197;-67
2022/01/18 09:04:33;;;;;;;14.10;5.87;;;9.00;99.90;;;;;;5074547;28;20218;-67
2022/01/18 09:07:03;;;;;;;11.63;5.77;;;9.00;99.90;;;;;;5084520;28;20187;-69
2022/01/18 09:09:29;;;;;;;10.73;5.33;;;9.00;99.90;;;;;;5061787;28;20179;-71
2022/01/18 09:11:55;;;;;;;12.50;5.30;;;9.00;99.90;;;;;;5075292;28;20204;-67
2022/01/18 09:14:23;;;;;;;13.63;5.73;;;9.00;99.90;;;;;;5070635;28;20201;-70
2022/01/18 09:16:48;;;;;;;11.67;5.53;;;9.00;99.90;;;;;;5074382;28;20226;-66
2022/01/18 09:19:15;;;;;;;13.83;5.83;;;9.00;99.90;;;;;;5075312;28;20192;-67
2022/01/18 09:21:41;;;;;;;14.17;5.90;;;9.00;99.90;;;;;;5077840;28;20196;-66
2022/01/18 09:24:12;;;;;;;10.13;4.90;;;9.00;99.90;;;;;;5101403;27;20186;-66
2022/01/18 09:26:37;;;;;;;11.97;5.93;;;9.00;99.90;;;;;;5105096;27;20189;-69
2022/01/18 09:29:03;;;;;;;9.83;4.77;;;9.00;99.90;;;;;;5068009;28;20190;-69
2022/01/18 09:31:29;;;;;;;13.07;5.57;;;9.00;99.90;;;;;;5073647;28;20344;-69
2022/01/18 09:33:55;;;;;;;12.77;5.47;;;9.10;99.90;;;;;;5083760;28;20338;-67
2022/01/18 09:36:23;;;;;;;11.53;5.03;;;9.10;99.90;;;;;;5072390;28;20181;-68
2022/01/18 09:38:49;;;;;;;11.40;5.38;;;9.20;99.90;;;;;;5067621;28;20188;-69
2022/01/18 09:41:17;;;;;;;10.73;4.97;;;9.20;99.90;;;;;;5072891;28;20205;-68
2022/01/18 09:43:43;;;;;;;12.13;5.43;;;9.20;99.90;;;;;;5069676;28;20181;-68
2022/01/18 09:46:11;;;;;;;10.87;5.20;;;9.30;99.90;;;;;;5071710;28;20188;-65
2022/01/18 09:48:37;;;;;;;10.37;4.70;;;9.30;99.90;;;;;;5084557;28;20197;-68
2022/01/18 09:51:03;;;;;;;13.20;5.53;;;9.40;99.90;;;;;;5094298;27;20187;-69
2022/01/18 09:53:31;;;;;;;14.53;5.07;;;9.40;99.90;;;;;;5069632;28;20178;-67
2022/01/18 09:55:57;;;;;;;11.40;5.20;;;9.50;99.90;;;;;;5064721;28;20250;-67
2022/01/18 09:58:29;;;;;;;11.50;5.13;;;9.50;99.90;;;;;;5075143;28;20189;-67
2022/01/18 10:00:55;;;;;;;16.80;5.23;;;9.50;99.90;;;;;;5066745;28;20221;-68
2022/01/18 10:03:31;;;;;;;11.43;4.83;;;9.60;99.90;;;;;;5070633;28;20185;-68
2022/01/18 10:06:01;;;;;;;11.67;4.93;;;9.60;99.90;;;;;;5106718;27;20177;-69
2022/01/18 10:08:27;;;;;;;9.95;4.85;;;9.60;99.90;;;;;;5070189;28;20295;-69
2022/01/18 10:10:58;;;;;;;13.82;5.50;;;9.60;99.90;;;;;;5066227;28;20263;-68
2022/01/18 10:13:25;;;;;;;15.13;5.82;;;9.60;99.90;;;;;;5068853;28;20185;-66
2022/01/18 10:16:09;;;;;;;10.97;5.43;;;9.70;99.90;;;;;;5103346;27;20176;-70
2022/01/18 10:18:37;;;;;;;12.00;5.00;;;9.70;99.90;;;;;;5113774;27;20180;-69
2022/01/18 10:21:06;;;;;;;11.25;5.25;;;9.70;99.90;;;;;;5101669;27;20200;-70
2022/01/18 10:23:32;;;;;;;10.67;4.37;;;9.70;99.90;;;;;;5088627;28;20173;-68
2022/01/18 10:26:17;;;;;;;11.10;4.82;;;9.70;99.90;;;;;;5071075;28;20356;-69
2022/01/18 10:28:57;;;;;;;12.52;4.45;;;9.80;99.90;;;;;;5069193;28;20176;-70
2022/01/18 10:31:28;;;;;;;9.88;4.70;;;9.80;99.90;;;;;;5069483;28;20209;-66
2022/01/18 10:37:06;;;;;;;8.52;4.20;;;9.80;99.90;;;;;;5069377;28;20165;-70
2022/01/18 10:39:37;;;;;;;12.90;4.97;;;9.90;99.90;;;;;;5062835;28;20189;-65
2022/01/18 10:42:20;;;;;;;12.43;5.18;;;9.90;99.90;;;;;;5096710;27;20176;-66
2022/01/18 10:44:58;;;;;;;13.05;5.50;;;9.90;99.90;;;;;;5084717;28;20180;-68
2022/01/18 10:47:28;;;;;;;12.25;4.72;;;9.90;99.90;;;;;;5070057;28;20238;-68
2022/01/18 10:49:53;;;;;;;10.40;4.93;;;9.90;99.90;;;;;;5065686;28;20197;-67
2022/01/18 10:52:22;;;;;;;10.88;5.18;;;9.90;99.90;;;;;;5081152;28;20207;-68
2022/01/18 10:54:51;;;;;;;12.80;5.35;;;9.90;99.90;;;;;;5078083;28;20191;-70
2022/01/18 10:57:27;;;;;;;10.40;5.40;;;9.90;99.90;;;;;;5077796;28;20245;-70
2022/01/18 11:00:14;;;;;;;12.60;6.10;;;10.00;99.90;;;;;;5104039;27;20211;-67
2022/01/18 11:02:43;;;;;;;9.57;4.93;;;10.00;99.90;;;;;;5070797;28;20204;-68
2022/01/18 11:05:28;;;;;;;12.87;5.73;;;10.00;99.90;;;;;;5066248;28;20192;-66
2022/01/18 11:07:56;;;;;;;12.55;5.68;;;10.00;99.90;;;;;;5084282;28;20219;-66
2022/01/18 11:10:25;;;;;;;11.80;6.05;;;10.10;99.90;;;;;;5068131;28;20191;-67
2022/01/18 11:15:31;;;;;;;11.77;6.63;;;10.10;99.90;;;;;;5067985;28;20234;-68
2022/01/18 11:18:06;;;;;;;12.82;6.82;;;10.00;99.90;;;;;;5062619;28;20188;-67
2022/01/18 11:20:39;;;;;;;13.50;7.63;;;10.10;99.90;;;;;;5077465;28;20224;-67
2022/01/18 11:23:08;;;;;;;20.73;8.57;;;10.10;99.90;;;;;;5064981;28;20183;-65
2022/01/18 11:25:39;;;;;;;17.55;8.88;;;10.10;99.90;;;;;;5070626;28;20189;-69
2022/01/18 11:28:10;;;;;;;15.95;8.65;;;10.10;99.90;;;;;;5075638;28;20179;-65
2022/01/18 11:30:46;;;;;;;15.15;8.70;;;10.10;99.90;;;;;;5070421;28;20182;-68
2022/01/18 11:33:16;;;;;;;14.80;8.82;;;10.10;99.90;;;;;;5065446;28;20208;-70
2022/01/18 11:35:56;;;;;;;15.98;9.32;;;10.10;99.90;;;;;;5070895;28;20187;-67
2022/01/18 11:38:37;;;;;;;14.95;8.57;;;10.20;99.90;;;;;;5068977;28;20210;-64
2022/01/18 11:41:06;;;;;;;17.58;9.00;;;10.20;99.90;;;;;;5100321;28;20420;-67
2022/01/18 11:43:41;;;;;;;16.23;9.50;;;10.20;99.90;;;;;;5066472;28;20176;-65
2022/01/18 11:46:27;;;;;;;16.60;9.85;;;10.30;99.90;;;;;;5065046;28;20270;-67
2022/01/18 11:49:06;;;;;;;16.85;9.25;;;10.30;99.90;;;;;;5077398;28;20211;-67
2022/01/18 11:51:48;;;;;;;13.23;8.35;;;10.30;99.90;;;;;;5098325;28;20203;-67
2022/01/18 11:54:26;;;;;;;14.57;8.60;;;10.40;99.90;;;;;;5077650;28;20173;-64
2022/01/18 11:56:52;;;;;;;15.18;9.18;;;10.40;99.90;;;;;;5090546;28;20180;-67
2022/01/18 11:59:27;;;;;;;17.40;8.77;;;10.40;99.90;;;;;;5078306;28;20180;-66
2022/01/18 12:01:57;;;;;;;17.35;9.73;;;10.40;99.90;;;;;;5102337;28;20270;-67
2022/01/18 12:04:54;;;;;;;16.50;9.02;;;10.50;99.90;;;;;;5104210;28;20485;-68
2022/01/18 12:07:38;;;;;;;16.17;9.70;;;10.60;99.90;;;;;;5104144;27;20185;-67
2022/01/18 12:10:19;;;;;;;15.52;10.15;;;10.70;99.90;;;;;;5072441;28;20185;-68
2022/01/18 12:12:46;;;;;;;23.30;10.80;;;10.80;99.90;;;;;;5081418;28;20220;-68
2022/01/18 12:15:17;;;;;;;14.68;9.57;;;10.90;99.90;;;;;;5084146;28;20173;-68
2022/01/18 12:18:00;;;;;;;17.70;9.65;;;11.00;99.90;;;;;;5102917;27;20201;-67
2022/01/18 12:20:40;;;;;;;16.17;9.63;;;11.10;99.90;;;;;;5090666;28;20176;-67
2022/01/18 12:23:21;;;;;;;16.70;9.32;;;11.10;99.90;;;;;;5098734;27;20271;-67
2022/01/18 12:26:02;;;;;;;15.73;8.65;;;11.20;99.90;;;;;;5084580;28;20172;-68
2022/01/18 12:34:43;;;;;;;13.00;8.35;;;11.30;99.90;;;;;;5067569;28;20180;-69
2022/01/18 12:37:14;;;;;;;15.18;8.98;;;11.40;99.90;;;;;;5070566;28;20461;-65
2022/01/18 12:39:55;;;;;;;14.55;9.02;;;11.40;99.90;;;;;;5064600;28;20173;-67
2022/01/18 12:45:15;;;;;;;16.77;9.70;;;11.50;99.90;;;;;;5079619;28;20272;-71
2022/01/18 12:47:51;;;;;;;15.13;9.00;;;11.60;99.90;;;;;;5069442;28;20185;-69
2022/01/18 12:50:21;;;;;;;15.30;9.80;;;11.60;99.90;;;;;;5067012;28;20207;-69
2022/01/18 12:53:06;;;;;;;14.23;9.65;;;11.60;99.90;;;;;;5075422;28;20240;-68
2022/01/18 12:55:33;;;;;;;17.58;9.15;;;11.60;99.90;;;;;;5092152;28;20183;-69
2022/01/18 12:58:11;;;;;;;14.98;8.75;;;11.60;99.90;;;;;;5078385;28;20192;-67
2022/01/18 13:00:42;;;;;;;15.18;8.77;;;11.60;99.90;;;;;;5085496;28;20241;-67
2022/01/18 13:03:08;;;;;;;14.40;8.30;;;11.60;99.90;;;;;;5067353;28;20216;-67
2022/01/18 13:05:40;;;;;;;14.57;7.95;;;11.60;99.90;;;;;;5074383;28;20275;-67
2022/01/18 13:08:08;;;;;;;14.23;8.38;;;11.60;99.90;;;;;;5071649;28;20347;-67
2022/01/18 13:10:43;;;;;;;15.52;8.25;;;11.60;99.90;;;;;;5074271;28;20204;-68
2022/01/18 13:13:14;;;;;;;15.48;8.10;;;11.60;99.90;;;;;;5071396;28;20208;-67
2022/01/18 13:15:50;;;;;;;19.15;8.85;;;11.70;99.90;;;;;;5085709;28;20564;-68
2022/01/18 13:26:49;;;;;;;14.10;7.55;;;11.60;99.90;;;;;;5075141;28;20211;-67
2022/01/18 13:29:24;;;;;;;16.75;8.18;;;11.60;99.90;;;;;;5067696;28;20177;-68
2022/01/18 13:32:03;;;;;;;13.20;8.02;;;11.60;99.90;;;;;;5064160;28;20227;-67
2022/01/18 13:34:34;;;;;;;15.00;8.35;;;11.50;99.90;;;;;;5071090;28;20187;-69
2022/01/18 13:37:05;;;;;;;12.85;8.07;;;11.50;99.90;;;;;;5073368;28;20214;-69
2022/01/18 13:39:35;;;;;;;13.15;8.15;;;11.40;99.90;;;;;;5101610;27;20184;-69
2022/01/18 13:42:02;;;;;;;15.52;7.70;;;11.40;99.90;;;;;;5073761;28;20169;-68
2022/01/18 13:44:31;;;;;;;15.25;8.20;;;11.30;99.90;;;;;;5071226;28;20273;-67
2022/01/18 13:47:19;;;;;;;13.65;7.53;;;11.30;99.90;;;;;;5102590;27;20176;-68
2022/01/18 13:49:48;;;;;;;11.98;7.55;;;11.20;99.90;;;;;;5067704;28;20228;-70
2022/01/18 13:52:17;;;;;;;13.07;7.85;;;11.20;99.90;;;;;;5070101;28;20283;-70
2022/01/18 13:54:49;;;;;;;12.80;7.35;;;11.20;99.90;;;;;;5070122;28;20187;-70
2022/01/18 13:57:16;;;;;;;13.80;7.93;;;11.20;99.90;;;;;;5102882;27;20220;-69
2022/01/18 13:59:42;;;;;;;12.55;6.97;;;11.20;99.90;;;;;;5081428;28;20172;-69
2022/01/18 14:02:19;;;;;;;13.15;7.53;;;11.30;99.90;;;;;;5097301;28;20181;-68
2022/01/18 14:04:49;;;;;;;15.18;8.00;;;11.30;99.90;;;;;;5103828;28;20231;-70
2022/01/18 14:07:17;;;;;;;17.20;8.75;;;11.30;99.90;;;;;;5070694;28;20185;-66
2022/01/18 14:09:44;;;;;;;14.95;8.38;;;11.20;99.90;;;;;;5074476;28;20211;-68
2022/01/18 14:12:19;;;;;;;11.52;7.38;;;11.20;99.90;;;;;;5070101;28;20192;-68
2022/01/18 14:14:45;;;;;;;13.00;7.65;;;11.20;99.90;;;;;;5071809;28;20609;-69
2022/01/18 14:17:17;;;;;;;11.95;6.97;;;11.20;99.90;;;;;;5083751;28;20196;-68
2022/01/18 14:19:46;;;;;;;12.75;6.78;;;11.20;99.90;;;;;;5104137;27;20268;-68
2022/01/18 14:22:15;;;;;;;10.05;6.80;;;11.20;99.90;;;;;;5060970;28;20188;-68
2022/01/18 14:24:43;;;;;;;10.00;6.60;;;11.20;99.90;;;;;;5106798;27;20231;-67
2022/01/18 14:27:15;;;;;;;12.00;6.43;;;11.20;99.90;;;;;;5065784;28;20192;-67
2022/01/18 14:29:40;;;;;;;12.43;6.80;;;11.20;99.90;;;;;;5071338;28;20203;-69
2022/01/18 14:32:14;;;;;;;12.70;6.53;;;11.20;99.90;;;;;;5090979;28;20212;-70
2022/01/18 14:34:46;;;;;;;12.73;6.03;;;11.20;99.90;;;;;;5097790;28;20181;-70
2022/01/18 14:37:16;;;;;;;10.95;5.93;;;11.20;99.90;;;;;;5072551;28;20200;-67
2022/01/18 14:40:00;;;;;;;7.93;5.57;;;11.20;99.90;;;;;;5079882;28;20169;-70